Portada
METAR-TAF:

METAR-TAF

Aeropuertos :

Aeropuerto Internacional de Jacksons

Port Moresby, Papúa Nueva Guinea

latitud: 09-26S, longitud: 147-13E, altitud: 38 m

Observación

El informe se hizo hace 2 horas y 22 minutos, a las 12:00 UTC
Viento 6 kt del noroeste
Temperatura 25°C
Humedad 94%
Presión 1009 hPa
Visibilidad 10 km o más
Nubes dispersas a una altura de 5000 ft

METAR: AYPY 181200Z 32006KT 9999 SCT050 25/24 Q1009

Hora: 00:22 (14:22 UTC)

Pronóstico

El informe se hizo hace 10 horas y 17 minutos, a las 04:05 UTC
Pronóstico válido del 18 a las 06 UTC al 19 a las 06 UTC
Viento 5 kt del norte-noroeste
Visibilidad 10 km o más
Nubes dispersas a una altura de 10800 ft
Cielo nuboso a una altura de 14000 ft
chaparrones de lluvia

TAF: AYPY 180405Z 1806/1906 34005KT 9999 -SHRA SCT108 BKN140

Observaciones y pronósticos meteorológicos de más de 4000 aeropuertos (mensajes METAR y TAF).

Los puntos amarillos y rojos representan las estaciones disponibles.

Ponga el ratón en el punto deseado para ver el nombre de la estación.

Haga clic para ver las observaciones y los pronósticos meteorológicos.

Para cambiar el mapa : haga clic en los botones verdes con una cruz de color negro para hacer un zoom, en el botón verde con un guión para alejar o en las flechas verdes para mapas adyacentes.


METAR-TAF: